createdAt,value
2018-04-08T04:00:29.297Z,64.21
2018-04-08T04:00:54.783Z,63.92
2018-04-08T04:01:20.293Z,63.83
2018-04-08T04:01:45.806Z,63.45
2018-04-08T04:02:11.308Z,63.73
2018-04-08T04:02:36.801Z,63.83
2018-04-08T04:03:02.306Z,63.45
2018-04-08T04:03:27.809Z,63.83
2018-04-08T04:03:53.308Z,63.64
2018-04-08T04:04:18.807Z,63.83
2018-04-08T04:04:44.300Z,63.64
2018-04-08T04:05:09.776Z,63.64
2018-04-08T04:05:35.282Z,63.83
2018-04-08T04:06:00.797Z,63.45
2018-04-08T04:06:26.292Z,63.54
2018-04-08T04:06:51.779Z,63.73
2018-04-08T04:07:17.283Z,64.12
2018-04-08T04:07:42.808Z,63.92
2018-04-08T04:08:08.306Z,63.83
2018-04-08T04:08:33.808Z,63.54
2018-04-08T04:08:59.279Z,63.64
2018-04-08T04:09:24.767Z,63.16
2018-04-08T04:09:50.245Z,63.07
2018-04-08T04:10:15.747Z,63.16
2018-04-08T04:10:41.250Z,63.07
2018-04-08T04:11:06.750Z,63.35
2018-04-08T04:11:32.260Z,63.64
2018-04-08T04:11:57.759Z,63.45
2018-04-08T04:12:23.261Z,63.54
2018-04-08T04:12:48.766Z,63.64
2018-04-08T04:13:14.263Z,63.26
2018-04-08T04:13:39.762Z,63.26
2018-04-08T04:14:05.248Z,63.26
2018-04-08T04:14:30.740Z,63.16
2018-04-08T04:14:56.237Z,63.16
2018-04-08T04:15:21.741Z,63.35
2018-04-08T04:15:47.236Z,63.64
2018-04-08T04:16:12.736Z,63.26
2018-04-08T04:16:38.228Z,64.02
2018-04-08T04:17:03.721Z,63.35
2018-04-08T04:17:29.227Z,63.35
2018-04-08T04:17:54.726Z,63.35
2018-04-08T04:18:20.219Z,63.83
2018-04-08T04:18:45.711Z,63.73
2018-04-08T04:19:11.212Z,63.54
2018-04-08T04:19:36.704Z,63.64
2018-04-08T04:20:02.179Z,63.92
2018-04-08T04:20:27.681Z,63.92
2018-04-08T04:20:53.203Z,63.73
2018-04-08T04:21:18.683Z,64.02
2018-04-08T04:21:44.213Z,64.12
2018-04-08T04:22:09.716Z,64.02
2018-04-08T04:22:35.206Z,63.83
2018-04-08T04:23:00.705Z,63.7
2018-04-08T04:23:26.200Z,63.51
2018-04-08T04:23:51.702Z,63.51
2018-04-08T04:24:17.196Z,63.64
2018-04-08T04:24:42.698Z,63.51
2018-04-08T04:25:08.204Z,63.45
2018-04-08T04:25:33.706Z,63.54
2018-04-08T04:25:59.202Z,63.6
2018-04-08T04:26:24.705Z,63.6
2018-04-08T04:26:50.208Z,63.42
2018-04-08T04:27:15.702Z,63.8
2018-04-08T04:27:41.208Z,64.18
2018-04-08T04:28:06.718Z,63.99
2018-04-08T04:28:32.246Z,64.09
2018-04-08T04:28:57.741Z,64.09
2018-04-08T04:29:23.275Z,63.7
2018-04-08T04:29:48.717Z,63.99
2018-04-08T04:30:14.295Z,63.99
2018-04-08T04:30:39.765Z,63.7
2018-04-08T04:31:05.254Z,63.7
2018-04-08T04:31:30.750Z,63.6
2018-04-08T04:31:56.257Z,64.09
2018-04-08T04:32:21.771Z,64.28
2018-04-08T04:32:47.285Z,64.09
2018-04-08T04:33:12.746Z,64.09
2018-04-08T04:33:38.236Z,64.28
2018-04-08T04:34:03.735Z,64.65
2018-04-08T04:34:29.222Z,64.85
2018-04-08T04:34:54.703Z,64.75
2018-04-08T04:35:20.212Z,64.75
2018-04-08T04:35:45.718Z,64.65
2018-04-08T04:36:11.221Z,64.47
2018-04-08T04:36:36.742Z,64.47
2018-04-08T04:37:02.241Z,64.47
2018-04-08T04:37:27.738Z,64.56
2018-04-08T04:37:53.242Z,64.47
2018-04-08T04:38:18.742Z,64.37
2018-04-08T04:38:44.232Z,64.37
2018-04-08T04:39:09.739Z,64.28
2018-04-08T04:39:35.233Z,64.65
2018-04-08T04:40:00.719Z,64.37
2018-04-08T04:40:26.208Z,64.47
2018-04-08T04:40:51.707Z,64.75
2018-04-08T04:41:17.204Z,64.85
2018-04-08T04:41:42.717Z,64.47
2018-04-08T04:42:08.219Z,64.56
2018-04-08T04:42:33.719Z,64.65
2018-04-08T04:42:59.215Z,64.94
2018-04-08T04:43:24.714Z,64.75
2018-04-08T04:43:50.218Z,64.56
2018-04-08T04:44:15.723Z,64.75
2018-04-08T04:44:41.228Z,64.56
2018-04-08T04:45:06.722Z,64.65
2018-04-08T04:45:32.213Z,64.75
2018-04-08T04:45:57.716Z,64.75
2018-04-08T04:46:23.211Z,65.04
2018-04-08T04:46:48.723Z,65.13
2018-04-08T04:47:14.210Z,65.23
2018-04-08T04:47:39.699Z,65.23
2018-04-08T04:48:05.194Z,65.23
2018-04-08T04:48:30.689Z,65.13
2018-04-08T04:48:56.180Z,64.85
2018-04-08T04:49:21.680Z,65.04
2018-04-08T04:49:47.165Z,64.85
2018-04-08T04:50:12.661Z,64.85
2018-04-08T04:50:38.158Z,65.42
2018-04-08T04:51:03.652Z,65.42
2018-04-08T04:51:29.139Z,65.23
2018-04-08T04:51:54.635Z,65.13
2018-04-08T04:52:20.136Z,65.33
2018-04-08T04:52:45.646Z,64.85
2018-04-08T04:53:11.151Z,64.94
2018-04-08T04:53:36.648Z,64.94
2018-04-08T04:54:02.145Z,65.13
2018-04-08T04:54:27.640Z,65.33
2018-04-08T04:54:53.138Z,65.52
2018-04-08T04:55:18.644Z,65.42
2018-04-08T04:55:44.122Z,65.33
2018-04-08T04:56:09.611Z,65.33
2018-04-08T04:56:35.114Z,64.94
2018-04-08T04:57:00.619Z,65.13
2018-04-08T04:57:26.108Z,65.33
2018-04-08T04:57:51.610Z,65.23
2018-04-08T04:58:17.095Z,65.04
2018-04-08T04:58:42.603Z,65.23
2018-04-08T04:59:08.101Z,64.94
2018-04-08T04:59:33.612Z,65.13
2018-04-08T04:59:59.114Z,65.61
2018-04-08T05:00:24.612Z,65.33
2018-04-08T05:00:50.116Z,65.52
2018-04-08T05:01:15.614Z,65.23
2018-04-08T05:01:41.122Z,65.23
2018-04-08T05:02:06.619Z,65.23
2018-04-08T05:02:32.119Z,65.04
2018-04-08T05:02:57.628Z,64.94
2018-04-08T05:03:23.136Z,65.04
2018-04-08T05:03:48.644Z,65.04
2018-04-08T05:04:14.143Z,64.85
2018-04-08T05:04:39.645Z,64.75
2018-04-08T05:05:05.139Z,65.23
2018-04-08T05:05:30.648Z,65.04
2018-04-08T05:05:56.158Z,65.33
2018-04-08T05:06:21.659Z,65.23
2018-04-08T05:06:47.164Z,65.23
2018-04-08T05:07:12.668Z,65.13
2018-04-08T05:07:38.162Z,65.23
2018-04-08T05:08:03.656Z,65.23
2018-04-08T05:08:29.159Z,64.85
2018-04-08T05:08:54.655Z,64.94
2018-04-08T05:09:20.151Z,65.04
2018-04-08T05:09:45.640Z,65.04
2018-04-08T05:10:11.138Z,64.85
2018-04-08T05:10:36.640Z,65.04
2018-04-08T05:11:02.148Z,65.04
2018-04-08T05:11:27.643Z,64.94
2018-04-08T05:11:53.150Z,65.04
2018-04-08T05:12:18.652Z,65.13
2018-04-08T05:12:44.146Z,65.13
2018-04-08T05:13:09.646Z,65.23
2018-04-08T05:13:35.184Z,65.33
2018-04-08T05:14:00.645Z,65.61
2018-04-08T05:14:26.149Z,65.52
2018-04-08T05:14:51.644Z,65.7
2018-04-08T05:15:17.144Z,65.42
2018-04-08T05:15:42.646Z,65.52
2018-04-08T05:16:08.149Z,65.52
2018-04-08T05:16:33.644Z,65.23
2018-04-08T05:16:59.144Z,65.33
2018-04-08T05:17:24.649Z,65.52
2018-04-08T05:17:50.142Z,65.26
2018-04-08T05:18:15.648Z,65.42
2018-04-08T05:18:41.145Z,65.61
2018-04-08T05:19:06.652Z,65.42
2018-04-08T05:19:32.140Z,65.36
2018-04-08T05:19:57.631Z,64.97
2018-04-08T05:20:23.128Z,64.97
2018-04-08T05:20:48.636Z,64.88
2018-04-08T05:21:14.130Z,65.55
2018-04-08T05:21:39.676Z,65.45
2018-04-08T05:22:05.131Z,64.97
2018-04-08T05:22:30.636Z,64.88
2018-04-08T05:22:56.111Z,65.07
2018-04-08T05:23:21.582Z,65.17
2018-04-08T05:23:47.079Z,64.59
2018-04-08T05:24:12.574Z,64.59
2018-04-08T05:24:38.073Z,64.5
2018-04-08T05:25:03.561Z,64.5
2018-04-08T05:25:29.060Z,64.5
2018-04-08T05:25:54.572Z,64.69
2018-04-08T05:26:20.065Z,64.59
2018-04-08T05:26:45.565Z,64.88
2018-04-08T05:27:11.082Z,64.4
2018-04-08T05:27:36.561Z,63.73
2018-04-08T05:28:02.059Z,63.73
2018-04-08T05:28:27.561Z,64.12
2018-04-08T05:28:53.054Z,63.92
2018-04-08T05:29:18.561Z,63.92
2018-04-08T05:29:44.069Z,63.35
2018-04-08T05:30:09.568Z,64.4
2018-04-08T05:30:35.063Z,64.12
2018-04-08T05:31:00.563Z,63.83
2018-04-08T05:31:26.046Z,63.45
2018-04-08T05:31:51.540Z,63.83
2018-04-08T05:32:17.029Z,63.92
2018-04-08T05:32:42.502Z,63.92
2018-04-08T05:33:07.967Z,63.64
2018-04-08T05:33:33.455Z,63.35
2018-04-08T05:33:58.929Z,63.16
2018-04-08T05:34:24.431Z,63.07
2018-04-08T05:34:49.931Z,63.54
2018-04-08T05:35:15.410Z,63.07
2018-04-08T05:35:40.847Z,62.97
2018-04-08T05:36:06.337Z,62.11
2018-04-08T05:36:31.804Z,62.49
2018-04-08T05:36:57.268Z,62.59
2018-04-08T05:37:22.742Z,62.52
2018-04-08T05:37:48.180Z,62.24
2018-04-08T05:38:51.768Z,62.43
2018-04-08T05:39:17.262Z,62.15
2018-04-08T05:39:42.760Z,61.66
2018-04-08T05:40:08.251Z,61.86
2018-04-08T05:40:33.691Z,61.76
2018-04-08T05:40:59.265Z,61.86
2018-04-08T05:41:24.635Z,61.66
2018-04-08T05:41:50.100Z,62.24
2018-04-08T05:42:15.535Z,62.05
2018-04-08T05:42:41.030Z,61.76
2018-04-08T05:43:06.492Z,61.95
2018-04-08T05:43:31.983Z,61.66
2018-04-08T05:43:57.436Z,61.47
2018-04-08T05:44:22.902Z,61.29
2018-04-08T05:44:48.396Z,60.71
2018-04-08T05:45:13.881Z,60.9
2018-04-08T05:45:39.363Z,60.71
2018-04-08T05:46:04.847Z,60.71
2018-04-08T05:46:30.350Z,60.71
2018-04-08T05:46:55.844Z,60.81
2018-04-08T05:47:21.341Z,60.81
2018-04-08T05:47:46.847Z,61
2018-04-08T05:48:12.344Z,61
2018-04-08T05:48:37.832Z,61
2018-04-08T05:49:03.319Z,61
2018-04-08T05:49:28.816Z,60.84
2018-04-08T05:49:54.313Z,60.9
2018-04-08T05:50:19.803Z,60.71
2018-04-08T05:50:45.280Z,60.46
2018-04-08T05:51:10.781Z,60.14
2018-04-08T05:51:36.262Z,60.46
2018-04-08T05:52:01.730Z,60.27
2018-04-08T05:52:27.210Z,60.24
2018-04-08T05:52:52.734Z,60.07
2018-04-08T05:53:18.205Z,59.88
2018-04-08T05:53:43.734Z,59.78
2018-04-08T05:54:09.230Z,59.88
2018-04-08T05:54:34.740Z,59.88
2018-04-08T05:55:00.250Z,60.07
2018-04-08T05:55:25.734Z,60.27
2018-04-08T05:55:51.225Z,59.69
2018-04-08T05:56:16.722Z,59.88
2018-04-08T05:56:42.222Z,59.88
2018-04-08T05:57:07.727Z,60.27
2018-04-08T05:57:33.208Z,59.12
2018-04-08T05:57:58.756Z,59.22
2018-04-08T05:58:24.184Z,58.73
2018-04-08T05:58:49.644Z,58.16
2018-04-08T05:59:15.105Z,58.54
2018-04-08T05:59:40.558Z,58.83
2018-04-08T06:00:06.012Z,58.64
2018-04-08T06:00:31.481Z,58.07
2018-04-08T06:01:40.168Z,57.81
2018-04-08T06:02:05.661Z,57.71
2018-04-08T06:02:31.160Z,57.9
2018-04-08T06:02:56.643Z,57.9
2018-04-08T06:03:22.135Z,58.1
2018-04-08T06:03:47.619Z,57.62
2018-04-08T06:04:13.053Z,57.43
2018-04-08T06:04:38.508Z,57.33
2018-04-08T06:05:03.959Z,57.33
2018-04-08T06:05:29.465Z,57.33
2018-04-08T06:05:54.949Z,57.71
2018-04-08T06:06:20.444Z,58.48
2018-04-08T06:06:45.947Z,58.29
2018-04-08T06:07:11.415Z,58
2018-04-08T06:08:04.865Z,58.1
2018-04-08T06:08:30.362Z,58.29
2018-04-08T06:08:55.862Z,58.38
2018-04-08T06:09:21.368Z,58.48
2018-04-08T06:09:46.863Z,57.43
2018-04-08T06:10:12.381Z,57.71
2018-04-08T06:10:37.864Z,57.36
2018-04-08T06:11:03.368Z,57.33
2018-04-08T06:11:28.858Z,57.33
2018-04-08T06:11:54.350Z,57.43
2018-04-08T06:12:19.835Z,57.24
2018-04-08T06:12:45.304Z,57.14
2018-04-08T06:13:10.772Z,56.38
2018-04-08T06:13:36.236Z,56.18
2018-04-08T06:14:01.684Z,56.28
2018-04-08T06:14:27.170Z,56.47
2018-04-08T06:14:52.718Z,56.67
2018-04-08T06:15:18.218Z,56.18
2018-04-08T06:15:43.709Z,57.14
2018-04-08T06:16:09.214Z,56.28
2018-04-08T06:16:34.715Z,57.04
2018-04-08T06:17:00.230Z,56.85
2018-04-08T06:17:25.728Z,56.85
2018-04-08T06:17:51.176Z,57.04
2018-04-08T06:18:16.685Z,56.67
2018-04-08T06:18:42.176Z,56.47
2018-04-08T06:19:07.685Z,56.76
2018-04-08T06:19:33.197Z,56.76
2018-04-08T06:19:58.696Z,56.76
2018-04-08T06:20:24.190Z,56.38
2018-04-08T06:20:49.686Z,56.47
2018-04-08T06:21:15.174Z,56.76
2018-04-08T06:21:40.675Z,57.14
2018-04-08T06:22:06.182Z,57.04
2018-04-08T06:22:31.680Z,57.53
2018-04-08T06:22:57.179Z,57.14
2018-04-08T06:23:22.677Z,57.14
2018-04-08T06:23:48.178Z,57.33
2018-04-08T06:24:13.684Z,57.24
2018-04-08T06:24:39.185Z,57.14
2018-04-08T06:25:04.695Z,57.14
2018-04-08T06:25:30.204Z,57.14
2018-04-08T06:25:55.703Z,57.43
2018-04-08T06:26:21.231Z,57.24
2018-04-08T06:26:46.731Z,57.43
2018-04-08T06:27:12.236Z,57.71
2018-04-08T06:27:37.738Z,57.71
2018-04-08T06:28:03.240Z,57.62
2018-04-08T06:28:28.737Z,57.9
2018-04-08T06:28:54.228Z,58.29
2018-04-08T06:29:19.726Z,58.38
2018-04-08T06:29:45.233Z,57.81
2018-04-08T06:30:10.715Z,57.43
2018-04-08T06:30:36.210Z,57.04
2018-04-08T06:31:01.707Z,57.33
2018-04-08T06:31:27.217Z,57.36
2018-04-08T06:31:52.708Z,57.14
2018-04-08T06:32:18.216Z,56.98
2018-04-08T06:32:43.716Z,56.95
2018-04-08T06:33:09.220Z,57.14
2018-04-08T06:33:34.721Z,57.07
2018-04-08T06:34:00.220Z,57.71
2018-04-08T06:34:25.727Z,56.85
2018-04-08T06:34:51.230Z,56.98
2018-04-08T06:35:16.743Z,56.18
2018-04-08T06:35:42.246Z,56.5
2018-04-08T06:36:07.740Z,56.18
2018-04-08T06:36:33.226Z,57.24
2018-04-08T06:36:58.722Z,57.33
2018-04-08T06:37:24.221Z,57.17
2018-04-08T06:37:49.698Z,57.24
2018-04-08T06:38:15.199Z,57.33
2018-04-08T06:38:40.694Z,57.04
2018-04-08T06:39:06.195Z,57.33
2018-04-08T06:39:31.715Z,57.04
2018-04-08T06:39:57.223Z,56.85
2018-04-08T06:40:22.728Z,57.55
2018-04-08T06:40:48.229Z,57.07
2018-04-08T06:41:13.750Z,57.17
2018-04-08T06:41:39.269Z,56.38
2018-04-08T06:42:04.759Z,56.18
2018-04-08T06:42:30.247Z,56.21
2018-04-08T06:42:55.760Z,55.99
2018-04-08T06:43:21.246Z,55.71
2018-04-08T06:43:46.747Z,55.9
2018-04-08T06:44:12.249Z,55.52
2018-04-08T06:44:37.752Z,55.8
2018-04-08T06:45:03.248Z,55.99
2018-04-08T06:45:28.780Z,56.02
2018-04-08T06:45:54.271Z,56.09
2018-04-08T06:46:19.769Z,56.18
2018-04-08T06:46:45.271Z,55.99
2018-04-08T06:47:10.768Z,56.18
2018-04-08T06:47:36.284Z,56.09
2018-04-08T06:48:01.782Z,55.8
2018-04-08T06:48:27.297Z,55.42
2018-04-08T06:48:52.803Z,55.54
2018-04-08T06:49:18.308Z,55.8
2018-04-08T06:49:43.813Z,55.61
2018-04-08T06:50:09.313Z,55.64
2018-04-08T06:50:34.827Z,55.42
2018-04-08T06:51:00.352Z,55.52
2018-04-08T06:51:25.848Z,55.52
2018-04-08T06:51:51.347Z,55.71
2018-04-08T06:52:16.840Z,55.74
2018-04-08T06:52:42.344Z,55.71
2018-04-08T06:53:07.847Z,55.8
2018-04-08T06:53:33.350Z,55.83
2018-04-08T06:53:58.846Z,55.52
2018-04-08T06:54:24.343Z,55.9
2018-04-08T06:54:49.836Z,56.4
2018-04-08T06:55:15.329Z,56.21
2018-04-08T06:55:40.806Z,56.31
2018-04-08T06:56:06.332Z,56.5
2018-04-08T06:56:31.835Z,56.4
2018-04-08T06:56:57.316Z,56.6
2018-04-08T06:57:22.865Z,56.12
2018-04-08T06:57:48.472Z,56.4
2018-04-08T06:58:13.958Z,56.21
2018-04-08T06:58:39.463Z,56.21
2018-04-08T06:59:04.962Z,55.83
2018-04-08T06:59:30.459Z,55.26
2018-04-08T06:59:55.913Z,55.45
2018-04-08T07:00:21.422Z,55.54
2018-04-08T07:00:46.916Z,55.54
2018-04-08T07:01:12.432Z,55.93
2018-04-08T07:01:37.904Z,56.12
2018-04-08T07:02:03.372Z,56.21
2018-04-08T07:02:28.869Z,55.64
2018-04-08T07:02:54.451Z,55.64
2018-04-08T07:03:19.950Z,55.54
2018-04-08T07:03:45.437Z,55.64
2018-04-08T07:04:10.932Z,55.45
2018-04-08T07:04:36.437Z,55.64
2018-04-08T07:05:01.944Z,54.88
2018-04-08T07:05:27.444Z,54.88
2018-04-08T07:05:52.939Z,55.07
2018-04-08T07:06:18.430Z,56.02
2018-04-08T07:06:43.923Z,54.88
2018-04-08T07:07:09.421Z,55.16
2018-04-08T07:07:34.914Z,55.16
2018-04-08T07:08:00.403Z,55.54
2018-04-08T07:08:25.911Z,55.45
2018-04-08T07:08:51.413Z,55.54
2018-04-08T07:09:16.953Z,55.74
2018-04-08T07:09:42.452Z,55.45
2018-04-08T07:10:07.939Z,55.45
2018-04-08T07:10:33.430Z,55.54
2018-04-08T07:10:58.924Z,55.54
2018-04-08T07:11:24.427Z,55.74
2018-04-08T07:11:49.925Z,55.74
2018-04-08T07:12:15.423Z,55.83
2018-04-08T07:12:40.924Z,55.45
2018-04-08T07:13:06.430Z,56.12
2018-04-08T07:13:31.908Z,55.93
2018-04-08T07:13:57.416Z,55.93
2018-04-08T07:14:22.912Z,55.74
2018-04-08T07:14:48.412Z,55.64
2018-04-08T07:15:13.914Z,55.54
2018-04-08T07:15:39.415Z,55.1
2018-04-08T07:16:04.919Z,55.26
2018-04-08T07:16:30.404Z,54.88
2018-04-08T07:16:55.901Z,54.97
2018-04-08T07:17:21.397Z,55
2018-04-08T07:17:46.894Z,55
2018-04-08T07:18:12.392Z,55.54
2018-04-08T07:18:37.900Z,55.57
2018-04-08T07:19:03.398Z,55.86
2018-04-08T07:19:28.893Z,55.67
2018-04-08T07:19:54.385Z,55.76
2018-04-08T07:20:19.890Z,55.86
2018-04-08T07:20:45.380Z,55.76
2018-04-08T07:21:10.883Z,55.29
2018-04-08T07:21:36.383Z,55.19
2018-04-08T07:22:01.861Z,55.19
2018-04-08T07:22:27.355Z,55
2018-04-08T07:22:52.864Z,55.29
2018-04-08T07:23:18.377Z,55.19
2018-04-08T07:23:43.882Z,55.29
2018-04-08T07:24:09.368Z,55.1
2018-04-08T07:24:34.912Z,55.1
2018-04-08T07:25:00.387Z,55
2018-04-08T07:25:25.904Z,54.71
2018-04-08T07:25:51.368Z,55.1
2018-04-08T07:26:16.845Z,54.61
2018-04-08T07:26:42.316Z,54.71
2018-04-08T07:27:07.800Z,54.26
2018-04-08T07:27:33.309Z,54.14
2018-04-08T07:27:58.811Z,53.88
2018-04-08T07:28:24.305Z,53.85
2018-04-08T07:28:49.798Z,53.97
2018-04-08T07:29:15.293Z,53.97
2018-04-08T07:29:40.784Z,53.78
2018-04-08T07:30:06.338Z,54.14
2018-04-08T07:30:31.783Z,54.07
2018-04-08T07:30:57.259Z,53.97
2018-04-08T07:31:22.754Z,53.97
2018-04-08T07:31:48.242Z,54.16
2018-04-08T07:32:13.736Z,53.97
2018-04-08T07:32:39.296Z,54.55
2018-04-08T07:33:04.740Z,54.26
2018-04-08T07:33:30.229Z,54.16
2018-04-08T07:33:55.751Z,53.88
2018-04-08T07:34:21.235Z,53.69
2018-04-08T07:34:46.706Z,54.55
2018-04-08T07:35:12.211Z,54.64
2018-04-08T07:35:37.735Z,54.45
2018-04-08T07:36:03.239Z,54.55
2018-04-08T07:36:28.733Z,54.26
2018-04-08T07:36:54.238Z,53.97
2018-04-08T07:37:19.727Z,53.97
2018-04-08T07:37:45.237Z,53.88
2018-04-08T07:38:10.728Z,53.49
2018-04-08T07:38:36.232Z,53.59
2018-04-08T07:39:01.751Z,53.88
2018-04-08T07:39:27.244Z,53.78
2018-04-08T07:39:52.746Z,53.88
2018-04-08T07:40:18.251Z,53.78
2018-04-08T07:40:43.756Z,53.49
2018-04-08T07:41:09.255Z,53.59
2018-04-08T07:41:34.750Z,53.88
2018-04-08T07:42:00.238Z,53.49
2018-04-08T07:42:25.733Z,53.2
2018-04-08T07:42:51.234Z,54.16
2018-04-08T07:43:16.745Z,53.78
2018-04-08T07:43:42.241Z,53.88
2018-04-08T07:44:07.747Z,53.62
2018-04-08T07:44:33.227Z,53.81
2018-04-08T07:44:58.722Z,54
2018-04-08T07:45:24.230Z,53.81
2018-04-08T07:45:49.729Z,53.91
2018-04-08T07:46:15.230Z,54.1
2018-04-08T07:46:40.737Z,53.91
2018-04-08T07:47:06.239Z,53.62
2018-04-08T07:47:31.739Z,53.81
2018-04-08T07:47:57.239Z,53.42
2018-04-08T07:48:22.733Z,53.52
2018-04-08T07:48:48.235Z,53.52
2018-04-08T07:49:13.732Z,53.52
2018-04-08T07:49:39.232Z,53.62
2018-04-08T07:50:04.734Z,52.47
2018-04-08T07:50:30.237Z,52.47
2018-04-08T07:50:55.739Z,52.5
2018-04-08T07:51:21.243Z,52.4
2018-04-08T07:51:46.740Z,52.5
2018-04-08T07:52:12.240Z,52.59
2018-04-08T07:52:37.727Z,52.5
2018-04-08T07:53:03.227Z,52.59
2018-04-08T07:53:28.722Z,52.3
2018-04-08T07:53:54.218Z,52.3
2018-04-08T07:54:19.720Z,52.59
2018-04-08T07:54:45.213Z,51.92
2018-04-08T07:55:10.710Z,52.3
2018-04-08T07:55:36.208Z,51.73
2018-04-08T07:56:01.707Z,52.11
2018-04-08T07:56:27.210Z,52.04
2018-04-08T07:56:52.705Z,52.04
2018-04-08T07:57:18.204Z,52.33
2018-04-08T07:57:43.689Z,52.33
2018-04-08T07:58:09.184Z,52.04
2018-04-08T07:58:34.686Z,51.75
2018-04-08T07:59:00.190Z,51.65
2018-04-08T07:59:25.695Z,51.85
2018-04-08T07:59:51.188Z,50.79
2018-04-08T08:00:16.682Z,51.75
2018-04-08T08:00:42.183Z,51.85
2018-04-08T08:01:07.689Z,51.75
2018-04-08T08:01:33.206Z,51.75
2018-04-08T08:01:58.720Z,51.46
2018-04-08T08:02:24.216Z,51.75
2018-04-08T08:02:49.716Z,51.46
2018-04-08T08:03:15.217Z,51.75
2018-04-08T08:03:40.727Z,50.89
2018-04-08T08:04:06.225Z,51.08
2018-04-08T08:04:31.722Z,50.99
2018-04-08T08:04:57.229Z,51.08
2018-04-08T08:05:22.755Z,50.89
2018-04-08T08:05:48.229Z,50.7
2018-04-08T08:06:13.748Z,50.51
2018-04-08T08:06:39.244Z,50.79
2018-04-08T08:07:04.723Z,50.99
2018-04-08T08:07:30.210Z,50.7
2018-04-08T08:07:55.695Z,50.89
2018-04-08T08:08:21.189Z,50.7
2018-04-08T08:08:46.699Z,50.99
2018-04-08T08:09:12.217Z,51.28
2018-04-08T08:09:37.726Z,51.28
2018-04-08T08:10:03.216Z,51.28
2018-04-08T08:10:28.719Z,50.99
2018-04-08T08:10:54.223Z,50.99
2018-04-08T08:11:19.729Z,50.79
2018-04-08T08:11:45.233Z,51.08
2018-04-08T08:12:10.738Z,50.99
2018-04-08T08:12:36.256Z,50.79
2018-04-08T08:13:01.754Z,51.18
2018-04-08T08:13:27.255Z,51.46
2018-04-08T08:13:52.756Z,51.65
2018-04-08T08:14:18.257Z,51.65
2018-04-08T08:14:43.757Z,51.46
2018-04-08T08:15:09.263Z,52.04
2018-04-08T08:15:34.789Z,51.75
2018-04-08T08:16:00.292Z,51.85
2018-04-08T08:16:25.794Z,51.28
2018-04-08T08:16:51.297Z,51.65
2018-04-08T08:17:16.779Z,52.14
2018-04-08T08:17:42.282Z,51.95
2018-04-08T08:18:07.787Z,52.52
2018-04-08T08:18:33.286Z,52.42
2018-04-08T08:18:58.787Z,52.33
2018-04-08T08:19:24.283Z,52.23
2018-04-08T08:19:49.784Z,51.95
2018-04-08T08:20:15.287Z,52.42
2018-04-08T08:20:40.796Z,52.26
2018-04-08T08:21:06.317Z,52.26
2018-04-08T08:21:31.809Z,52.07
2018-04-08T08:21:57.320Z,51.97
2018-04-08T08:22:22.822Z,52.16
2018-04-08T08:22:48.329Z,52.36
2018-04-08T08:23:13.835Z,51.78
2018-04-08T08:23:39.380Z,52.07
2018-04-08T08:24:04.842Z,51.59
2018-04-08T08:24:30.346Z,51.01
2018-04-08T08:24:55.848Z,51.01
2018-04-08T08:25:21.354Z,51.1
2018-04-08T08:25:46.853Z,50.82
2018-04-08T08:26:12.407Z,51.1
2018-04-08T08:26:37.869Z,51.01
2018-04-08T08:27:03.383Z,50.73
2018-04-08T08:27:28.878Z,50.82
2018-04-08T08:27:54.385Z,50.84
2018-04-08T08:28:19.909Z,50.94
2018-04-08T08:28:45.388Z,51.51
2018-04-08T08:29:10.890Z,51.23
2018-04-08T08:29:36.390Z,50.84
2018-04-08T08:30:01.894Z,50.65
2018-04-08T08:30:27.392Z,49.6
2018-04-08T08:30:52.901Z,49.79
2018-04-08T08:31:18.400Z,49.5
2018-04-08T08:31:43.907Z,49.79
2018-04-08T08:32:09.415Z,49.79
2018-04-08T08:32:34.918Z,49.6
2018-04-08T08:33:00.422Z,49.98
2018-04-08T08:33:25.918Z,49.98
2018-04-08T08:33:51.420Z,49.88
2018-04-08T08:34:16.917Z,49.69
2018-04-08T08:34:42.412Z,49.98
2018-04-08T08:35:07.910Z,49.5
2018-04-08T08:35:33.415Z,49.98
2018-04-08T08:35:58.921Z,49.79
2018-04-08T08:36:24.426Z,49.79
2018-04-08T08:36:49.939Z,49.79
2018-04-08T08:37:15.439Z,49.98
2018-04-08T08:37:40.928Z,50.1
2018-04-08T08:38:06.425Z,49.91
2018-04-08T08:38:31.931Z,49.88
2018-04-08T08:38:57.421Z,49.82
2018-04-08T08:39:22.922Z,49.72
2018-04-08T08:39:48.431Z,49.82
2018-04-08T08:40:13.929Z,49.82
2018-04-08T08:40:39.427Z,49.72
2018-04-08T08:41:04.932Z,49.33
2018-04-08T08:41:30.442Z,49.15
2018-04-08T08:41:55.945Z,49.33
2018-04-08T08:42:21.450Z,49.15
2018-04-08T08:42:46.944Z,50.01
2018-04-08T08:43:12.459Z,49.05
2018-04-08T08:43:37.988Z,49.33
2018-04-08T08:44:03.478Z,49.24
2018-04-08T08:44:28.984Z,49.05
2018-04-08T08:44:54.475Z,48.95
2018-04-08T08:45:19.975Z,49.05
2018-04-08T08:45:45.467Z,48.95
2018-04-08T08:46:10.971Z,48.95
2018-04-08T08:46:36.477Z,48.95
2018-04-08T08:47:01.982Z,48.95
2018-04-08T08:47:27.476Z,49.07
2018-04-08T08:47:52.981Z,48.88
2018-04-08T08:48:18.484Z,48.97
2018-04-08T08:48:43.994Z,48.21
2018-04-08T08:49:09.533Z,48.21
2018-04-08T08:49:35.008Z,48.3
2018-04-08T08:50:00.506Z,48.4
2018-04-08T08:50:26.017Z,48.59
2018-04-08T08:50:51.520Z,48.49
2018-04-08T08:51:17.025Z,48.3
2018-04-08T08:51:42.523Z,48.3
2018-04-08T08:52:08.034Z,48.11
2018-04-08T08:52:33.535Z,48.52
2018-04-08T08:52:59.040Z,47.94
2018-04-08T08:53:24.538Z,48.13
2018-04-08T08:53:50.037Z,47.94
2018-04-08T08:54:15.535Z,48.04
2018-04-08T08:54:41.040Z,47.66
2018-04-08T08:55:06.546Z,47.94
2018-04-08T08:55:32.050Z,47.56
2018-04-08T08:55:57.614Z,47.3
2018-04-08T08:56:23.068Z,47.49
2018-04-08T08:56:48.574Z,47.49
2018-04-08T08:57:14.072Z,47.3
2018-04-08T08:57:39.570Z,47.39
2018-04-08T08:58:05.064Z,47.39
2018-04-08T08:58:30.570Z,47.49
2018-04-08T08:58:56.074Z,47.3
2018-04-08T08:59:21.579Z,47.3
2018-04-08T08:59:47.089Z,47.49
2018-04-08T09:00:12.599Z,47.1
2018-04-08T09:00:38.103Z,46.53
2018-04-08T09:01:03.600Z,46.81
2018-04-08T09:01:29.108Z,46.64
2018-04-08T09:01:54.602Z,46.26
2018-04-08T09:02:20.112Z,45.97
2018-04-08T09:02:45.614Z,45.78
2018-04-08T09:03:11.118Z,45.78
2018-04-08T09:03:36.622Z,45.59
2018-04-08T09:04:02.138Z,45.59
2018-04-08T09:04:27.646Z,45.39
2018-04-08T09:04:53.158Z,45.1
2018-04-08T09:05:18.673Z,45.1
2018-04-08T09:05:44.172Z,45.01
2018-04-08T09:06:09.665Z,44.91
2018-04-08T09:06:35.189Z,44.65
2018-04-08T09:07:00.669Z,45.03
2018-04-08T09:07:26.179Z,44.84
2018-04-08T09:07:51.684Z,44.65
2018-04-08T09:08:17.184Z,44.74
2018-04-08T09:08:42.692Z,44.74
2018-04-08T09:09:08.207Z,44.45
2018-04-08T09:09:33.718Z,44.65
2018-04-08T09:09:59.228Z,44.74
2018-04-08T09:10:24.740Z,44.65
2018-04-08T09:10:50.242Z,44.07
2018-04-08T09:11:15.750Z,44.65
2018-04-08T09:11:41.253Z,44.65
2018-04-08T09:12:06.777Z,44.07
2018-04-08T09:12:32.272Z,43.97
2018-04-08T09:12:57.786Z,44.74
2018-04-08T09:13:23.276Z,44.65
2018-04-08T09:13:48.791Z,44.65
2018-04-08T09:14:14.290Z,44.65
2018-04-08T09:14:39.798Z,44.38
2018-04-08T09:15:05.310Z,44.76
2018-04-08T09:15:30.822Z,44.76
2018-04-08T09:15:56.323Z,44.09
2018-04-08T09:16:21.835Z,44.19
2018-04-08T09:16:47.334Z,44.09
2018-04-08T09:17:12.829Z,44.28
2018-04-08T09:17:38.339Z,44.09
2018-04-08T09:18:03.843Z,43.99
2018-04-08T09:18:29.340Z,44.19
2018-04-08T09:18:54.879Z,43.99
2018-04-08T09:19:20.388Z,43.51
2018-04-08T09:19:45.893Z,43.71
2018-04-08T09:20:11.403Z,43.51
2018-04-08T09:20:36.920Z,43.71
2018-04-08T09:21:02.428Z,43.44
2018-04-08T09:21:27.931Z,43.32
2018-04-08T09:21:53.420Z,43.23
2018-04-08T09:22:18.917Z,43.15
2018-04-08T09:22:44.416Z,43.05
2018-04-08T09:23:09.920Z,43.23
2018-04-08T09:23:35.437Z,43.34
2018-04-08T09:24:00.937Z,43.82
2018-04-08T09:24:26.443Z,43.44
2018-04-08T09:24:51.947Z,43.15
2018-04-08T09:25:17.453Z,43.34
2018-04-08T09:25:42.950Z,43.34
2018-04-08T09:26:08.452Z,42.38
2018-04-08T09:26:33.957Z,43.15
2018-04-08T09:26:59.462Z,42.96
2018-04-08T09:27:24.958Z,42.86
2018-04-08T09:27:50.494Z,42.96
2018-04-08T09:28:16.022Z,43.44
2018-04-08T09:28:41.474Z,43.32
2018-04-08T09:29:06.975Z,43.23
2018-04-08T09:29:32.493Z,42.84
2018-04-08T09:29:57.982Z,43.41
2018-04-08T09:30:23.494Z,43.32
2018-04-08T09:30:48.988Z,43.32
2018-04-08T09:31:14.477Z,43.13
2018-04-08T09:31:39.980Z,43.23